sensor_id;sensor_type;location;lat;lon;timestamp;P1;durP1;ratioP1;P2;durP2;ratioP2
23737;SDS011;12049;51.068;3.688;2022-11-28T00:02:13;29.75;;;11.63;;
23737;SDS011;12049;51.068;3.688;2022-11-28T00:04:39;23.83;;;11.38;;
23737;SDS011;12049;51.068;3.688;2022-11-28T00:07:04;22.00;;;11.35;;
23737;SDS011;12049;51.068;3.688;2022-11-28T00:09:30;22.55;;;11.05;;
23737;SDS011;12049;51.068;3.688;2022-11-28T00:11:56;21.23;;;10.68;;
23737;SDS011;12049;51.068;3.688;2022-11-28T00:14:21;29.90;;;11.90;;
23737;SDS011;12049;51.068;3.688;2022-11-28T00:16:47;23.85;;;12.05;;
23737;SDS011;12049;51.068;3.688;2022-11-28T00:19:13;23.77;;;11.57;;
23737;SDS011;12049;51.068;3.688;2022-11-28T00:21:39;23.42;;;11.25;;
23737;SDS011;12049;51.068;3.688;2022-11-28T00:24:05;22.40;;;11.27;;
23737;SDS011;12049;51.068;3.688;2022-11-28T00:26:33;23.42;;;11.15;;
23737;SDS011;12049;51.068;3.688;2022-11-28T00:29:00;30.98;;;12.30;;
23737;SDS011;12049;51.068;3.688;2022-11-28T00:31:28;23.33;;;11.77;;
23737;SDS011;12049;51.068;3.688;2022-11-28T00:33:56;28.27;;;12.70;;
23737;SDS011;12049;51.068;3.688;2022-11-28T00:36:22;26.77;;;10.88;;
23737;SDS011;12049;51.068;3.688;2022-11-28T00:38:48;25.88;;;11.75;;
23737;SDS011;12049;51.068;3.688;2022-11-28T00:41:15;34.00;;;12.25;;
23737;SDS011;12049;51.068;3.688;2022-11-28T00:43:45;24.00;;;10.70;;
23737;SDS011;12049;51.068;3.688;2022-11-28T00:46:16;25.30;;;11.75;;
23737;SDS011;12049;51.068;3.688;2022-11-28T00:48:43;22.20;;;10.40;;
23737;SDS011;12049;51.068;3.688;2022-11-28T00:53:38;28.35;;;11.77;;
23737;SDS011;12049;51.068;3.688;2022-11-28T00:56:07;29.80;;;11.65;;
23737;SDS011;12049;51.068;3.688;2022-11-28T00:58:35;30.15;;;12.70;;
23737;SDS011;12049;51.068;3.688;2022-11-28T01:01:14;28.50;;;12.98;;
23737;SDS011;12049;51.068;3.688;2022-11-28T01:03:47;30.15;;;13.10;;
23737;SDS011;12049;51.068;3.688;2022-11-28T01:06:20;30.10;;;12.75;;
23737;SDS011;12049;51.068;3.688;2022-11-28T01:08:48;33.72;;;14.13;;
23737;SDS011;12049;51.068;3.688;2022-11-28T01:11:13;26.40;;;12.48;;
23737;SDS011;12049;51.068;3.688;2022-11-28T01:13:39;27.23;;;12.68;;
23737;SDS011;12049;51.068;3.688;2022-11-28T01:16:05;28.48;;;13.52;;
23737;SDS011;12049;51.068;3.688;2022-11-28T01:18:32;37.00;;;14.52;;
23737;SDS011;12049;51.068;3.688;2022-11-28T01:20:57;37.08;;;14.38;;
23737;SDS011;12049;51.068;3.688;2022-11-28T01:23:23;33.65;;;14.60;;
23737;SDS011;12049;51.068;3.688;2022-11-28T01:25:49;31.75;;;14.02;;
23737;SDS011;12049;51.068;3.688;2022-11-28T01:28:14;27.25;;;12.85;;
23737;SDS011;12049;51.068;3.688;2022-11-28T01:30:40;35.33;;;14.45;;
23737;SDS011;12049;51.068;3.688;2022-11-28T01:33:05;30.25;;;14.63;;
23737;SDS011;12049;51.068;3.688;2022-11-28T01:35:31;39.38;;;15.57;;
23737;SDS011;12049;51.068;3.688;2022-11-28T01:37:57;30.17;;;15.40;;
23737;SDS011;12049;51.068;3.688;2022-11-28T01:40:22;28.48;;;15.23;;
23737;SDS011;12049;51.068;3.688;2022-11-28T01:42:48;43.67;;;16.10;;
23737;SDS011;12049;51.068;3.688;2022-11-28T01:45:15;31.42;;;15.38;;
23737;SDS011;12049;51.068;3.688;2022-11-28T01:47:47;29.15;;;16.10;;
23737;SDS011;12049;51.068;3.688;2022-11-28T01:50:16;36.65;;;16.92;;
23737;SDS011;12049;51.068;3.688;2022-11-28T01:52:43;30.80;;;15.57;;
23737;SDS011;12049;51.068;3.688;2022-11-28T01:55:11;28.55;;;15.40;;
23737;SDS011;12049;51.068;3.688;2022-11-28T01:57:41;34.70;;;16.55;;
23737;SDS011;12049;51.068;3.688;2022-11-28T02:00:11;32.75;;;16.65;;
23737;SDS011;12049;51.068;3.688;2022-11-28T02:05:05;34.53;;;17.48;;
23737;SDS011;12049;51.068;3.688;2022-11-28T02:07:31;37.33;;;17.05;;
23737;SDS011;12049;51.068;3.688;2022-11-28T02:09:58;38.17;;;18.33;;
23737;SDS011;12049;51.068;3.688;2022-11-28T02:15:32;40.95;;;18.05;;
23737;SDS011;12049;51.068;3.688;2022-11-28T02:18:13;44.75;;;19.42;;
23737;SDS011;12049;51.068;3.688;2022-11-28T02:26:30;44.70;;;19.50;;
23737;SDS011;12049;51.068;3.688;2022-11-28T02:32:15;40.97;;;20.40;;
23737;SDS011;12049;51.068;3.688;2022-11-28T02:35:03;44.95;;;20.70;;
23737;SDS011;12049;51.068;3.688;2022-11-28T02:37:48;39.88;;;19.75;;
23737;SDS011;12049;51.068;3.688;2022-11-28T02:45:19;44.63;;;20.42;;
23737;SDS011;12049;51.068;3.688;2022-11-28T02:47:56;38.25;;;21.17;;
23737;SDS011;12049;51.068;3.688;2022-11-28T02:50:29;37.47;;;19.90;;
23737;SDS011;12049;51.068;3.688;2022-11-28T02:53:13;42.80;;;21.67;;
23737;SDS011;12049;51.068;3.688;2022-11-28T02:55:44;42.55;;;21.50;;
23737;SDS011;12049;51.068;3.688;2022-11-28T02:58:10;39.00;;;21.30;;
23737;SDS011;12049;51.068;3.688;2022-11-28T03:00:37;37.25;;;20.83;;
23737;SDS011;12049;51.068;3.688;2022-11-28T03:06:01;36.30;;;21.67;;
23737;SDS011;12049;51.068;3.688;2022-11-28T03:14:10;44.40;;;22.92;;
23737;SDS011;12049;51.068;3.688;2022-11-28T03:16:45;46.90;;;23.67;;
23737;SDS011;12049;51.068;3.688;2022-11-28T03:21:58;40.95;;;22.00;;
23737;SDS011;12049;51.068;3.688;2022-11-28T03:24:35;39.83;;;22.33;;
23737;SDS011;12049;51.068;3.688;2022-11-28T03:27:20;38.30;;;21.48;;
23737;SDS011;12049;51.068;3.688;2022-11-28T03:29:54;41.85;;;23.67;;
23737;SDS011;12049;51.068;3.688;2022-11-28T03:32:27;41.33;;;22.83;;
23737;SDS011;12049;51.068;3.688;2022-11-28T03:34:58;41.15;;;23.95;;
23737;SDS011;12049;51.068;3.688;2022-11-28T03:37:29;43.30;;;23.90;;
23737;SDS011;12049;51.068;3.688;2022-11-28T03:39:58;39.38;;;22.92;;
23737;SDS011;12049;51.068;3.688;2022-11-28T03:42:28;38.63;;;23.15;;
23737;SDS011;12049;51.068;3.688;2022-11-28T03:45:05;57.35;;;26.90;;
23737;SDS011;12049;51.068;3.688;2022-11-28T03:47:54;51.47;;;25.77;;
23737;SDS011;12049;51.068;3.688;2022-11-28T03:50:30;50.03;;;26.83;;
23737;SDS011;12049;51.068;3.688;2022-11-28T03:53:02;52.75;;;25.83;;
23737;SDS011;12049;51.068;3.688;2022-11-28T03:55:36;58.63;;;27.08;;
23737;SDS011;12049;51.068;3.688;2022-11-28T03:58:24;55.78;;;27.02;;
23737;SDS011;12049;51.068;3.688;2022-11-28T04:06:27;58.58;;;23.85;;
23737;SDS011;12049;51.068;3.688;2022-11-28T04:09:02;72.32;;;31.17;;
23737;SDS011;12049;51.068;3.688;2022-11-28T04:11:44;62.08;;;29.98;;
23737;SDS011;12049;51.068;3.688;2022-11-28T04:14:25;76.15;;;33.22;;
23737;SDS011;12049;51.068;3.688;2022-11-28T04:17:25;74.30;;;32.60;;
23737;SDS011;12049;51.068;3.688;2022-11-28T04:20:40;65.07;;;31.75;;
23737;SDS011;12049;51.068;3.688;2022-11-28T04:22:52;78.13;;;33.60;;
23737;SDS011;12049;51.068;3.688;2022-11-28T04:25:22;70.55;;;32.40;;
23737;SDS011;12049;51.068;3.688;2022-11-28T04:27:52;81.70;;;35.80;;
23737;SDS011;12049;51.068;3.688;2022-11-28T04:30:21;75.25;;;33.95;;
23737;SDS011;12049;51.068;3.688;2022-11-28T04:32:58;81.55;;;35.85;;
23737;SDS011;12049;51.068;3.688;2022-11-28T04:35:38;99.72;;;38.20;;
23737;SDS011;12049;51.068;3.688;2022-11-28T04:38:06;82.10;;;36.30;;
23737;SDS011;12049;51.068;3.688;2022-11-28T04:40:36;83.63;;;37.22;;
23737;SDS011;12049;51.068;3.688;2022-11-28T04:43:08;86.88;;;36.90;;
23737;SDS011;12049;51.068;3.688;2022-11-28T04:45:43;91.50;;;38.97;;
23737;SDS011;12049;51.068;3.688;2022-11-28T04:48:18;97.25;;;37.72;;
23737;SDS011;12049;51.068;3.688;2022-11-28T04:50:48;90.80;;;41.08;;
23737;SDS011;12049;51.068;3.688;2022-11-28T04:53:19;88.93;;;38.58;;
23737;SDS011;12049;51.068;3.688;2022-11-28T04:55:59;90.15;;;37.55;;
23737;SDS011;12049;51.068;3.688;2022-11-28T04:58:37;89.25;;;39.17;;
23737;SDS011;12049;51.068;3.688;2022-11-28T05:01:06;99.90;;;40.20;;
23737;SDS011;12049;51.068;3.688;2022-11-28T05:03:36;94.68;;;39.47;;
23737;SDS011;12049;51.068;3.688;2022-11-28T05:06:03;119.75;;;43.40;;
23737;SDS011;12049;51.068;3.688;2022-11-28T05:08:29;91.00;;;39.95;;
23737;SDS011;12049;51.068;3.688;2022-11-28T05:10:55;93.70;;;38.83;;
23737;SDS011;12049;51.068;3.688;2022-11-28T05:13:21;129.63;;;42.78;;
23737;SDS011;12049;51.068;3.688;2022-11-28T05:15:46;98.88;;;42.20;;
23737;SDS011;12049;51.068;3.688;2022-11-28T05:18:12;100.65;;;42.53;;
23737;SDS011;12049;51.068;3.688;2022-11-28T05:20:38;128.88;;;43.58;;
23737;SDS011;12049;51.068;3.688;2022-11-28T05:23:04;115.75;;;42.95;;
23737;SDS011;12049;51.068;3.688;2022-11-28T05:25:30;142.32;;;45.67;;
23737;SDS011;12049;51.068;3.688;2022-11-28T05:27:56;118.57;;;45.00;;
23737;SDS011;12049;51.068;3.688;2022-11-28T05:30:22;114.93;;;43.17;;
23737;SDS011;12049;51.068;3.688;2022-11-28T05:32:47;91.50;;;40.65;;
23737;SDS011;12049;51.068;3.688;2022-11-28T05:35:13;102.20;;;42.05;;
23737;SDS011;12049;51.068;3.688;2022-11-28T05:37:38;122.43;;;44.92;;
23737;SDS011;12049;51.068;3.688;2022-11-28T05:40:04;104.13;;;43.05;;
23737;SDS011;12049;51.068;3.688;2022-11-28T05:42:31;108.10;;;44.35;;
23737;SDS011;12049;51.068;3.688;2022-11-28T05:44:58;133.70;;;44.80;;
23737;SDS011;12049;51.068;3.688;2022-11-28T05:47:23;125.93;;;45.35;;
23737;SDS011;12049;51.068;3.688;2022-11-28T05:49:49;134.95;;;46.67;;
23737;SDS011;12049;51.068;3.688;2022-11-28T05:52:15;117.10;;;45.65;;
23737;SDS011;12049;51.068;3.688;2022-11-28T05:54:40;106.65;;;44.55;;
23737;SDS011;12049;51.068;3.688;2022-11-28T05:57:06;161.85;;;46.97;;
23737;SDS011;12049;51.068;3.688;2022-11-28T05:59:32;106.35;;;43.63;;
23737;SDS011;12049;51.068;3.688;2022-11-28T06:01:58;102.70;;;43.53;;
23737;SDS011;12049;51.068;3.688;2022-11-28T06:04:23;135.63;;;46.42;;
23737;SDS011;12049;51.068;3.688;2022-11-28T06:06:49;95.00;;;42.30;;
23737;SDS011;12049;51.068;3.688;2022-11-28T06:09:15;104.47;;;43.95;;
23737;SDS011;12049;51.068;3.688;2022-11-28T06:11:41;147.00;;;46.55;;
23737;SDS011;12049;51.068;3.688;2022-11-28T06:14:07;112.72;;;44.38;;
23737;SDS011;12049;51.068;3.688;2022-11-28T06:16:34;111.50;;;43.63;;
23737;SDS011;12049;51.068;3.688;2022-11-28T06:19:00;112.38;;;44.05;;
23737;SDS011;12049;51.068;3.688;2022-11-28T06:21:28;111.60;;;43.25;;
23737;SDS011;12049;51.068;3.688;2022-11-28T06:23:55;91.32;;;40.72;;
23737;SDS011;12049;51.068;3.688;2022-11-28T06:26:22;98.13;;;41.60;;
23737;SDS011;12049;51.068;3.688;2022-11-28T06:28:49;104.40;;;41.55;;
23737;SDS011;12049;51.068;3.688;2022-11-28T06:31:16;92.80;;;39.78;;
23737;SDS011;12049;51.068;3.688;2022-11-28T06:33:43;97.32;;;40.28;;
23737;SDS011;12049;51.068;3.688;2022-11-28T06:36:10;91.95;;;39.70;;
23737;SDS011;12049;51.068;3.688;2022-11-28T06:38:36;97.82;;;38.10;;
23737;SDS011;12049;51.068;3.688;2022-11-28T06:41:03;93.25;;;36.95;;
23737;SDS011;12049;51.068;3.688;2022-11-28T06:43:34;93.00;;;37.97;;
23737;SDS011;12049;51.068;3.688;2022-11-28T06:46:00;90.05;;;36.72;;
23737;SDS011;12049;51.068;3.688;2022-11-28T06:48:26;90.18;;;36.95;;
23737;SDS011;12049;51.068;3.688;2022-11-28T06:50:52;82.88;;;35.67;;
23737;SDS011;12049;51.068;3.688;2022-11-28T06:53:18;107.25;;;38.70;;
23737;SDS011;12049;51.068;3.688;2022-11-28T06:55:44;89.80;;;37.65;;
23737;SDS011;12049;51.068;3.688;2022-11-28T06:58:10;105.00;;;38.78;;
23737;SDS011;12049;51.068;3.688;2022-11-28T07:00:36;98.15;;;36.58;;
23737;SDS011;12049;51.068;3.688;2022-11-28T07:03:02;109.30;;;40.97;;
23737;SDS011;12049;51.068;3.688;2022-11-28T07:05:27;101.60;;;38.17;;
23737;SDS011;12049;51.068;3.688;2022-11-28T07:07:55;100.57;;;39.00;;
23737;SDS011;12049;51.068;3.688;2022-11-28T07:10:21;97.72;;;39.55;;
23737;SDS011;12049;51.068;3.688;2022-11-28T07:12:54;99.70;;;38.75;;
23737;SDS011;12049;51.068;3.688;2022-11-28T07:15:20;97.55;;;37.95;;
23737;SDS011;12049;51.068;3.688;2022-11-28T07:17:46;102.97;;;40.50;;
23737;SDS011;12049;51.068;3.688;2022-11-28T07:20:11;112.93;;;41.53;;
23737;SDS011;12049;51.068;3.688;2022-11-28T07:22:37;111.20;;;41.28;;
23737;SDS011;12049;51.068;3.688;2022-11-28T07:25:03;115.53;;;41.60;;
23737;SDS011;12049;51.068;3.688;2022-11-28T07:27:29;130.68;;;44.30;;
23737;SDS011;12049;51.068;3.688;2022-11-28T07:29:55;108.07;;;42.53;;
23737;SDS011;12049;51.068;3.688;2022-11-28T07:32:20;101.05;;;40.83;;
23737;SDS011;12049;51.068;3.688;2022-11-28T07:34:46;104.32;;;40.95;;
23737;SDS011;12049;51.068;3.688;2022-11-28T07:37:11;104.13;;;42.85;;
23737;SDS011;12049;51.068;3.688;2022-11-28T07:39:37;107.20;;;41.38;;
23737;SDS011;12049;51.068;3.688;2022-11-28T07:42:03;104.68;;;42.00;;
23737;SDS011;12049;51.068;3.688;2022-11-28T07:44:28;104.65;;;41.05;;
23737;SDS011;12049;51.068;3.688;2022-11-28T07:46:54;96.78;;;41.00;;
23737;SDS011;12049;51.068;3.688;2022-11-28T07:49:20;86.97;;;39.58;;
23737;SDS011;12049;51.068;3.688;2022-11-28T07:51:45;110.90;;;40.53;;
23737;SDS011;12049;51.068;3.688;2022-11-28T07:54:11;81.68;;;39.30;;
23737;SDS011;12049;51.068;3.688;2022-11-28T07:56:37;90.38;;;38.67;;
23737;SDS011;12049;51.068;3.688;2022-11-28T07:59:03;81.05;;;37.25;;
23737;SDS011;12049;51.068;3.688;2022-11-28T08:01:30;78.70;;;37.05;;
23737;SDS011;12049;51.068;3.688;2022-11-28T08:03:57;84.18;;;36.40;;
23737;SDS011;12049;51.068;3.688;2022-11-28T08:06:27;75.55;;;35.15;;
23737;SDS011;12049;51.068;3.688;2022-11-28T08:08:54;84.60;;;35.95;;
23737;SDS011;12049;51.068;3.688;2022-11-28T08:11:22;67.28;;;33.70;;
23737;SDS011;12049;51.068;3.688;2022-11-28T08:13:49;76.20;;;33.35;;
23737;SDS011;12049;51.068;3.688;2022-11-28T08:16:16;71.18;;;34.53;;
23737;SDS011;12049;51.068;3.688;2022-11-28T08:18:44;71.22;;;34.47;;
23737;SDS011;12049;51.068;3.688;2022-11-28T08:21:12;69.40;;;33.92;;
23737;SDS011;12049;51.068;3.688;2022-11-28T08:23:42;72.70;;;35.20;;
23737;SDS011;12049;51.068;3.688;2022-11-28T08:26:10;70.20;;;34.47;;
23737;SDS011;12049;51.068;3.688;2022-11-28T08:28:37;71.78;;;33.55;;
23737;SDS011;12049;51.068;3.688;2022-11-28T08:31:07;64.63;;;33.83;;
23737;SDS011;12049;51.068;3.688;2022-11-28T08:33:37;73.18;;;33.72;;
23737;SDS011;12049;51.068;3.688;2022-11-28T08:36:04;72.35;;;32.00;;
23737;SDS011;12049;51.068;3.688;2022-11-28T08:38:33;57.78;;;30.27;;
23737;SDS011;12049;51.068;3.688;2022-11-28T08:41:09;59.13;;;29.45;;
23737;SDS011;12049;51.068;3.688;2022-11-28T08:43:36;64.10;;;30.85;;
23737;SDS011;12049;51.068;3.688;2022-11-28T08:46:03;57.67;;;30.50;;
23737;SDS011;12049;51.068;3.688;2022-11-28T08:48:30;68.15;;;31.00;;
23737;SDS011;12049;51.068;3.688;2022-11-28T08:50:57;59.40;;;29.70;;
23737;SDS011;12049;51.068;3.688;2022-11-28T08:53:22;56.88;;;28.55;;
23737;SDS011;12049;51.068;3.688;2022-11-28T08:55:48;56.40;;;29.02;;
23737;SDS011;12049;51.068;3.688;2022-11-28T08:58:14;55.15;;;29.35;;
23737;SDS011;12049;51.068;3.688;2022-11-28T09:00:40;57.25;;;28.67;;
23737;SDS011;12049;51.068;3.688;2022-11-28T09:03:13;64.60;;;28.80;;
23737;SDS011;12049;51.068;3.688;2022-11-28T09:05:41;49.20;;;27.48;;
23737;SDS011;12049;51.068;3.688;2022-11-28T09:08:09;54.63;;;28.02;;
23737;SDS011;12049;51.068;3.688;2022-11-28T09:10:35;52.83;;;29.75;;
23737;SDS011;12049;51.068;3.688;2022-11-28T09:13:02;52.05;;;28.98;;
23737;SDS011;12049;51.068;3.688;2022-11-28T09:15:28;60.17;;;31.25;;
23737;SDS011;12049;51.068;3.688;2022-11-28T09:17:54;63.53;;;31.98;;
23737;SDS011;12049;51.068;3.688;2022-11-28T09:20:20;59.70;;;31.70;;
23737;SDS011;12049;51.068;3.688;2022-11-28T09:22:46;61.75;;;31.63;;
23737;SDS011;12049;51.068;3.688;2022-11-28T09:25:12;63.05;;;32.30;;
23737;SDS011;12049;51.068;3.688;2022-11-28T09:27:38;62.28;;;31.30;;
23737;SDS011;12049;51.068;3.688;2022-11-28T09:30:04;64.93;;;31.67;;
23737;SDS011;12049;51.068;3.688;2022-11-28T09:32:31;67.00;;;31.70;;
23737;SDS011;12049;51.068;3.688;2022-11-28T09:34:57;68.68;;;31.20;;
23737;SDS011;12049;51.068;3.688;2022-11-28T09:37:22;60.78;;;30.38;;
23737;SDS011;12049;51.068;3.688;2022-11-28T09:39:49;66.47;;;32.28;;
23737;SDS011;12049;51.068;3.688;2022-11-28T09:42:20;77.30;;;33.42;;
23737;SDS011;12049;51.068;3.688;2022-11-28T09:44:51;59.80;;;30.42;;
23737;SDS011;12049;51.068;3.688;2022-11-28T09:47:27;66.43;;;31.45;;
23737;SDS011;12049;51.068;3.688;2022-11-28T09:49:56;62.42;;;31.35;;
23737;SDS011;12049;51.068;3.688;2022-11-28T09:55:03;62.83;;;30.52;;
23737;SDS011;12049;51.068;3.688;2022-11-28T09:57:46;58.80;;;30.80;;
23737;SDS011;12049;51.068;3.688;2022-11-28T10:00:15;66.10;;;32.60;;
23737;SDS011;12049;51.068;3.688;2022-11-28T10:03:03;71.78;;;33.13;;
23737;SDS011;12049;51.068;3.688;2022-11-28T10:05:36;62.08;;;31.38;;
23737;SDS011;12049;51.068;3.688;2022-11-28T10:08:29;69.73;;;32.57;;
23737;SDS011;12049;51.068;3.688;2022-11-28T10:13:40;63.97;;;30.98;;
23737;SDS011;12049;51.068;3.688;2022-11-28T10:16:26;67.35;;;30.80;;
23737;SDS011;12049;51.068;3.688;2022-11-28T10:19:06;67.82;;;31.38;;
23737;SDS011;12049;51.068;3.688;2022-11-28T10:24:03;66.13;;;31.92;;
23737;SDS011;12049;51.068;3.688;2022-11-28T10:26:36;66.38;;;32.80;;
23737;SDS011;12049;51.068;3.688;2022-11-28T10:29:23;84.55;;;48.95;;
23737;SDS011;12049;51.068;3.688;2022-11-28T10:31:51;63.08;;;32.40;;
23737;SDS011;12049;51.068;3.688;2022-11-28T10:36:53;67.40;;;33.75;;
23737;SDS011;12049;51.068;3.688;2022-11-28T10:39:42;60.25;;;32.88;;
23737;SDS011;12049;51.068;3.688;2022-11-28T10:42:14;63.10;;;32.42;;
23737;SDS011;12049;51.068;3.688;2022-11-28T10:44:58;65.32;;;32.00;;
23737;SDS011;12049;51.068;3.688;2022-11-28T10:50:21;75.10;;;33.67;;
23737;SDS011;12049;51.068;3.688;2022-11-28T11:00:54;80.22;;;35.83;;
23737;SDS011;12049;51.068;3.688;2022-11-28T11:03:28;78.40;;;36.50;;
23737;SDS011;12049;51.068;3.688;2022-11-28T11:05:56;78.10;;;36.65;;
23737;SDS011;12049;51.068;3.688;2022-11-28T11:08:24;71.90;;;36.72;;
23737;SDS011;12049;51.068;3.688;2022-11-28T11:16:22;71.95;;;36.80;;
23737;SDS011;12049;51.068;3.688;2022-11-28T11:18:52;85.00;;;38.13;;
23737;SDS011;12049;51.068;3.688;2022-11-28T11:21:25;82.20;;;39.10;;
23737;SDS011;12049;51.068;3.688;2022-11-28T11:26:45;77.80;;;36.67;;
23737;SDS011;12049;51.068;3.688;2022-11-28T11:29:22;86.07;;;39.80;;
23737;SDS011;12049;51.068;3.688;2022-11-28T11:31:56;78.22;;;38.45;;
23737;SDS011;12049;51.068;3.688;2022-11-28T11:34:27;75.43;;;38.35;;
23737;SDS011;12049;51.068;3.688;2022-11-28T11:37:16;74.40;;;38.95;;
23737;SDS011;12049;51.068;3.688;2022-11-28T11:39:51;75.63;;;37.42;;
23737;SDS011;12049;51.068;3.688;2022-11-28T11:42:21;85.57;;;40.35;;
23737;SDS011;12049;51.068;3.688;2022-11-28T11:44:51;79.15;;;39.67;;
23737;SDS011;12049;51.068;3.688;2022-11-28T11:47:17;102.30;;;38.60;;
23737;SDS011;12049;51.068;3.688;2022-11-28T11:49:45;91.40;;;39.90;;
23737;SDS011;12049;51.068;3.688;2022-11-28T11:52:21;93.40;;;39.83;;
23737;SDS011;12049;51.068;3.688;2022-11-28T11:54:52;98.15;;;39.95;;
23737;SDS011;12049;51.068;3.688;2022-11-28T11:57:23;90.40;;;40.22;;
23737;SDS011;12049;51.068;3.688;2022-11-28T12:00:10;92.32;;;38.75;;
23737;SDS011;12049;51.068;3.688;2022-11-28T12:02:45;88.72;;;40.20;;
23737;SDS011;12049;51.068;3.688;2022-11-28T12:05:20;87.28;;;39.78;;
23737;SDS011;12049;51.068;3.688;2022-11-28T12:08:02;87.22;;;39.88;;
23737;SDS011;12049;51.068;3.688;2022-11-28T12:10:36;82.43;;;39.33;;
23737;SDS011;12049;51.068;3.688;2022-11-28T12:13:17;94.70;;;40.53;;
23737;SDS011;12049;51.068;3.688;2022-11-28T12:24:07;83.22;;;38.08;;
23737;SDS011;12049;51.068;3.688;2022-11-28T12:27:23;95.82;;;38.80;;
23737;SDS011;12049;51.068;3.688;2022-11-28T12:49:30;88.38;;;34.80;;
23737;SDS011;12049;51.068;3.688;2022-11-28T12:52:22;86.35;;;33.22;;
23737;SDS011;12049;51.068;3.688;2022-11-28T13:00:08;78.28;;;33.40;;
23737;SDS011;12049;51.068;3.688;2022-11-28T13:05:57;85.65;;;33.85;;
23737;SDS011;12049;51.068;3.688;2022-11-28T13:08:41;84.15;;;31.63;;
23737;SDS011;12049;51.068;3.688;2022-11-28T13:14:13;81.88;;;31.77;;
23737;SDS011;12049;51.068;3.688;2022-11-28T13:16:49;71.60;;;31.23;;
23737;SDS011;12049;51.068;3.688;2022-11-28T13:25:02;71.03;;;30.40;;
23737;SDS011;12049;51.068;3.688;2022-11-28T13:30:28;86.28;;;31.52;;
23737;SDS011;12049;51.068;3.688;2022-11-28T13:33:00;84.82;;;31.77;;
23737;SDS011;12049;51.068;3.688;2022-11-28T13:35:37;92.97;;;32.65;;
23737;SDS011;12049;51.068;3.688;2022-11-28T13:38:08;91.15;;;32.45;;
23737;SDS011;12049;51.068;3.688;2022-11-28T13:45:41;92.82;;;33.28;;
23737;SDS011;12049;51.068;3.688;2022-11-28T13:53:43;81.80;;;31.70;;
23737;SDS011;12049;51.068;3.688;2022-11-28T13:56:21;82.32;;;30.85;;
23737;SDS011;12049;51.068;3.688;2022-11-28T13:58:55;92.30;;;31.70;;
23737;SDS011;12049;51.068;3.688;2022-11-28T14:01:25;80.65;;;31.40;;
23737;SDS011;12049;51.068;3.688;2022-11-28T14:06:29;80.50;;;29.55;;
23737;SDS011;12049;51.068;3.688;2022-11-28T14:12:06;70.70;;;29.38;;
23737;SDS011;12049;51.068;3.688;2022-11-28T14:20:14;59.60;;;27.20;;
23737;SDS011;12049;51.068;3.688;2022-11-28T14:27:44;83.15;;;28.02;;
23737;SDS011;12049;51.068;3.688;2022-11-28T14:32:56;64.78;;;25.85;;
23737;SDS011;12049;51.068;3.688;2022-11-28T14:43:31;68.15;;;27.50;;
23737;SDS011;12049;51.068;3.688;2022-11-28T14:56:52;63.33;;;25.40;;
23737;SDS011;12049;51.068;3.688;2022-11-28T14:59:19;72.32;;;27.10;;
23737;SDS011;12049;51.068;3.688;2022-11-28T15:04:28;67.20;;;27.55;;
23737;SDS011;12049;51.068;3.688;2022-11-28T15:09:37;80.45;;;26.92;;
23737;SDS011;12049;51.068;3.688;2022-11-28T15:14:54;69.85;;;26.70;;
23737;SDS011;12049;51.068;3.688;2022-11-28T15:17:27;72.60;;;27.08;;
23737;SDS011;12049;51.068;3.688;2022-11-28T15:19:56;62.65;;;25.65;;
23737;SDS011;12049;51.068;3.688;2022-11-28T15:22:42;73.72;;;26.38;;
23737;SDS011;12049;51.068;3.688;2022-11-28T15:27:48;64.85;;;25.70;;
23737;SDS011;12049;51.068;3.688;2022-11-28T15:30:20;61.80;;;25.80;;
23737;SDS011;12049;51.068;3.688;2022-11-28T15:32:59;63.67;;;25.85;;
23737;SDS011;12049;51.068;3.688;2022-11-28T15:35:25;59.35;;;24.13;;
23737;SDS011;12049;51.068;3.688;2022-11-28T15:37:52;65.10;;;25.67;;
23737;SDS011;12049;51.068;3.688;2022-11-28T15:40:22;52.30;;;24.05;;
23737;SDS011;12049;51.068;3.688;2022-11-28T15:42:58;68.55;;;25.23;;
23737;SDS011;12049;51.068;3.688;2022-11-28T15:45:27;71.43;;;24.10;;
23737;SDS011;12049;51.068;3.688;2022-11-28T15:47:53;59.03;;;23.80;;
23737;SDS011;12049;51.068;3.688;2022-11-28T15:50:21;74.20;;;23.90;;
23737;SDS011;12049;51.068;3.688;2022-11-28T15:52:56;65.88;;;24.85;;
23737;SDS011;12049;51.068;3.688;2022-11-28T15:55:26;57.35;;;24.13;;
23737;SDS011;12049;51.068;3.688;2022-11-28T15:58:09;64.72;;;25.02;;
23737;SDS011;12049;51.068;3.688;2022-11-28T16:00:55;77.90;;;24.67;;
23737;SDS011;12049;51.068;3.688;2022-11-28T16:06:15;73.70;;;26.35;;
23737;SDS011;12049;51.068;3.688;2022-11-28T16:09:22;57.72;;;24.02;;
23737;SDS011;12049;51.068;3.688;2022-11-28T16:11:50;63.20;;;26.45;;
23737;SDS011;12049;51.068;3.688;2022-11-28T16:14:30;72.70;;;25.42;;
23737;SDS011;12049;51.068;3.688;2022-11-28T16:17:00;62.28;;;25.33;;
23737;SDS011;12049;51.068;3.688;2022-11-28T16:19:28;77.13;;;26.08;;
23737;SDS011;12049;51.068;3.688;2022-11-28T16:22:00;65.30;;;25.15;;
23737;SDS011;12049;51.068;3.688;2022-11-28T16:24:29;71.83;;;27.83;;
23737;SDS011;12049;51.068;3.688;2022-11-28T16:27:00;47.55;;;18.60;;
23737;SDS011;12049;51.068;3.688;2022-11-28T16:29:28;72.43;;;27.35;;
23737;SDS011;12049;51.068;3.688;2022-11-28T16:32:05;73.18;;;26.98;;
23737;SDS011;12049;51.068;3.688;2022-11-28T16:34:48;83.07;;;29.25;;
23737;SDS011;12049;51.068;3.688;2022-11-28T16:37:23;86.32;;;29.45;;
23737;SDS011;12049;51.068;3.688;2022-11-28T16:42:54;90.00;;;30.52;;
23737;SDS011;12049;51.068;3.688;2022-11-28T16:45:23;83.60;;;29.83;;
23737;SDS011;12049;51.068;3.688;2022-11-28T16:48:11;81.30;;;29.58;;
23737;SDS011;12049;51.068;3.688;2022-11-28T16:51:26;84.30;;;31.83;;
23737;SDS011;12049;51.068;3.688;2022-11-28T17:01:45;91.97;;;32.97;;
23737;SDS011;12049;51.068;3.688;2022-11-28T17:04:27;93.05;;;32.28;;
23737;SDS011;12049;51.068;3.688;2022-11-28T17:06:54;88.80;;;29.30;;
23737;SDS011;12049;51.068;3.688;2022-11-28T17:09:21;98.60;;;33.30;;
23737;SDS011;12049;51.068;3.688;2022-11-28T17:11:55;77.63;;;29.83;;
23737;SDS011;12049;51.068;3.688;2022-11-28T17:14:23;90.40;;;31.65;;
23737;SDS011;12049;51.068;3.688;2022-11-28T17:16:48;115.85;;;36.28;;
23737;SDS011;12049;51.068;3.688;2022-11-28T17:19:14;104.85;;;35.83;;
23737;SDS011;12049;51.068;3.688;2022-11-28T17:24:23;107.72;;;35.10;;
23737;SDS011;12049;51.068;3.688;2022-11-28T17:26:52;96.25;;;34.25;;
23737;SDS011;12049;51.068;3.688;2022-11-28T17:29:18;92.78;;;33.78;;
23737;SDS011;12049;51.068;3.688;2022-11-28T17:31:45;108.43;;;36.55;;
23737;SDS011;12049;51.068;3.688;2022-11-28T17:34:13;103.95;;;36.53;;
23737;SDS011;12049;51.068;3.688;2022-11-28T17:36:41;125.32;;;36.38;;
23737;SDS011;12049;51.068;3.688;2022-11-28T17:39:07;95.90;;;36.08;;
23737;SDS011;12049;51.068;3.688;2022-11-28T17:41:33;112.07;;;36.38;;
23737;SDS011;12049;51.068;3.688;2022-11-28T17:43:59;109.57;;;37.53;;
23737;SDS011;12049;51.068;3.688;2022-11-28T17:46:24;100.95;;;35.83;;
23737;SDS011;12049;51.068;3.688;2022-11-28T17:48:50;120.47;;;37.22;;
23737;SDS011;12049;51.068;3.688;2022-11-28T17:51:15;114.15;;;40.88;;